This is the latest recevied weather packets stored in our database for station/object EA1HTW-1. If no packets are shown the sender has not sent any weather packets the latest 10 day(s).
| Time | Temp. | Humidity | Pressure | Rain* | Wind** | Luminosity | Snow |
|---|---|---|---|---|---|---|---|
| 1777991965 | 13.33° C | 80% | 987.9 hPa | 0 mm | - | - | - |
| 1777991364 | 13.89° C | 81% | 987.8 hPa | 0.51 mm | - | - | - |
| 1777990767 | 15° C | 83% | 987.8 hPa | 1.52 mm | - | - | - |
| 1777988964 | 11.67° C | 91% | 988.1 hPa | 1.52 mm | - | - | - |
| 1777988365 | 11.67° C | 90% | 987.9 hPa | 3.05 mm | - | - | - |
| 1777987165 | 11.67° C | 89% | 988.1 hPa | 1.78 mm | - | - | - |
| 1777985966 | 11.67° C | 90% | 987.8 hPa | 1.78 mm | - | - | - |
| 1777984763 | 13.33° C | 83% | 987.9 hPa | 0.25 mm | - | - | - |
| 1777983567 | 13.89° C | 79% | 987.8 hPa | 0 mm | - | - | - |
| 1777982966 | 13.33° C | 80% | 987.8 hPa | 0.51 mm | - | - | - |
| 1777981766 | 14.44° C | 81% | 987.8 hPa | 0.51 mm | - | - | - |
| 1777981166 | 13.89° C | 85% | 987.8 hPa | 0.51 mm | - | - | - |
| 1777980563 | 12.22° C | 86% | 988.1 hPa | 0.51 mm | - | - | - |
| 1777979966 | 12.22° C | 86% | 987.9 hPa | 0.51 mm | - | - | - |
| 1777979366 | 14.44° C | 75% | 987.8 hPa | 0 mm | - | - | - |
| 1777978763 | 15.56° C | 76% | 987.8 hPa | 0 mm | - | - | - |
| 1777977564 | 13.89° C | 80% | 988.1 hPa | 0 mm | - | - | - |
| 1777976963 | 12.78° C | 79% | 988.1 hPa | 0 mm | - | - | - |
| 1777976364 | 12.22° C | 82% | 988.3 hPa | 0.25 mm | - | - | - |
| 1777975764 | 12.22° C | 84% | 988 hPa | 0.25 mm | - | - | - |
| 1777975165 | 12.22° C | 84% | 988.2 hPa | 0.25 mm | - | - | - |
| 1777973965 | 12.22° C | 85% | 988.1 hPa | 0.25 mm | - | - | - |
| 1777973484 | 12.22° C | 81% | 987.9 hPa | 0.25 mm | - | - | - |
| 1777973365 | 12.22° C | 81% | 987.9 hPa | 0.25 mm | - | - | - |
| 1777972166 | 12.78° C | 81% | 987.8 hPa | 0 mm | - | - | - |
* Rain latest hour (hover to see other rain measurements)
** Current wind speed in m/s (hover to see current wind gust speed)